sensor_id;sensor_type;location;lat;lon;timestamp;temperature;humidity
17659;DHT22;8948;51.534;8.262;2022-11-18T00:03:45;9.80;72.10
17659;DHT22;8948;51.534;8.262;2022-11-18T00:08:46;9.70;72.10
17659;DHT22;8948;51.534;8.262;2022-11-18T00:13:47;9.70;72.40
17659;DHT22;8948;51.534;8.262;2022-11-18T00:19:06;9.60;72.50
17659;DHT22;8948;51.534;8.262;2022-11-18T00:24:07;9.60;72.80
17659;DHT22;8948;51.534;8.262;2022-11-18T00:29:09;9.60;72.70
17659;DHT22;8948;51.534;8.262;2022-11-18T00:34:16;9.50;72.50
17659;DHT22;8948;51.534;8.262;2022-11-18T00:39:18;9.50;73.00
17659;DHT22;8948;51.534;8.262;2022-11-18T00:44:19;9.60;72.90
17659;DHT22;8948;51.534;8.262;2022-11-18T00:49:20;9.60;72.60
17659;DHT22;8948;51.534;8.262;2022-11-18T00:54:20;9.70;72.60
17659;DHT22;8948;51.534;8.262;2022-11-18T00:59:21;9.70;72.60
17659;DHT22;8948;51.534;8.262;2022-11-18T01:04:22;9.70;72.70
17659;DHT22;8948;51.534;8.262;2022-11-18T01:09:22;9.80;72.60
17659;DHT22;8948;51.534;8.262;2022-11-18T01:14:24;9.80;72.50
17659;DHT22;8948;51.534;8.262;2022-11-18T01:19:25;9.80;72.50
17659;DHT22;8948;51.534;8.262;2022-11-18T01:24:25;9.90;71.90
17659;DHT22;8948;51.534;8.262;2022-11-18T01:29:26;9.80;72.20
17659;DHT22;8948;51.534;8.262;2022-11-18T01:34:27;9.90;71.90
17659;DHT22;8948;51.534;8.262;2022-11-18T01:39:28;9.80;72.10
17659;DHT22;8948;51.534;8.262;2022-11-18T01:49:53;9.90;71.80
17659;DHT22;8948;51.534;8.262;2022-11-18T01:54:57;9.90;71.80
17659;DHT22;8948;51.534;8.262;2022-11-18T02:00:00;9.80;72.00
17659;DHT22;8948;51.534;8.262;2022-11-18T02:05:05;9.90;71.90
17659;DHT22;8948;51.534;8.262;2022-11-18T02:10:08;9.90;71.90
17659;DHT22;8948;51.534;8.262;2022-11-18T02:15:09;10.00;71.70
17659;DHT22;8948;51.534;8.262;2022-11-18T02:25:49;10.00;71.70
17659;DHT22;8948;51.534;8.262;2022-11-18T02:31:01;10.00;71.80
17659;DHT22;8948;51.534;8.262;2022-11-18T02:36:41;10.00;71.60
17659;DHT22;8948;51.534;8.262;2022-11-18T02:41:34;10.00;71.50
17659;DHT22;8948;51.534;8.262;2022-11-18T02:46:38;9.90;71.60
17659;DHT22;8948;51.534;8.262;2022-11-18T02:51:40;9.90;71.50
17659;DHT22;8948;51.534;8.262;2022-11-18T02:56:42;9.80;71.50
17659;DHT22;8948;51.534;8.262;2022-11-18T03:01:44;9.70;71.60
17659;DHT22;8948;51.534;8.262;2022-11-18T03:06:49;9.60;71.60
17659;DHT22;8948;51.534;8.262;2022-11-18T03:23:13;9.30;72.80
17659;DHT22;8948;51.534;8.262;2022-11-18T03:28:46;9.30;72.90
17659;DHT22;8948;51.534;8.262;2022-11-18T03:33:52;9.30;73.00
17659;DHT22;8948;51.534;8.262;2022-11-18T03:38:57;9.30;73.00
17659;DHT22;8948;51.534;8.262;2022-11-18T03:44:17;9.50;72.60
17659;DHT22;8948;51.534;8.262;2022-11-18T03:49:30;9.50;72.80
17659;DHT22;8948;51.534;8.262;2022-11-18T03:54:35;9.50;72.80
17659;DHT22;8948;51.534;8.262;2022-11-18T04:00:06;9.50;73.00
17659;DHT22;8948;51.534;8.262;2022-11-18T04:05:09;9.50;73.30
17659;DHT22;8948;51.534;8.262;2022-11-18T04:10:18;9.60;72.80
17659;DHT22;8948;51.534;8.262;2022-11-18T04:15:19;9.60;72.50
17659;DHT22;8948;51.534;8.262;2022-11-18T04:20:21;9.60;72.40
17659;DHT22;8948;51.534;8.262;2022-11-18T04:25:22;9.50;72.60
17659;DHT22;8948;51.534;8.262;2022-11-18T04:30:23;9.40;73.70
17659;DHT22;8948;51.534;8.262;2022-11-18T04:35:24;10.00;78.20
17659;DHT22;8948;51.534;8.262;2022-11-18T04:40:25;10.30;75.30
17659;DHT22;8948;51.534;8.262;2022-11-18T04:45:25;10.20;72.70
17659;DHT22;8948;51.534;8.262;2022-11-18T04:50:26;10.10;73.10
17659;DHT22;8948;51.534;8.262;2022-11-18T04:55:27;10.20;72.50
17659;DHT22;8948;51.534;8.262;2022-11-18T05:00:27;10.30;74.80
17659;DHT22;8948;51.534;8.262;2022-11-18T05:05:28;10.40;74.60
17659;DHT22;8948;51.534;8.262;2022-11-18T05:10:28;10.20;70.00
17659;DHT22;8948;51.534;8.262;2022-11-18T05:15:29;9.70;70.50
17659;DHT22;8948;51.534;8.262;2022-11-18T05:20:29;9.50;70.50
17659;DHT22;8948;51.534;8.262;2022-11-18T05:25:30;9.20;71.00
17659;DHT22;8948;51.534;8.262;2022-11-18T05:30:30;9.00;71.60
17659;DHT22;8948;51.534;8.262;2022-11-18T05:35:31;8.90;71.80
17659;DHT22;8948;51.534;8.262;2022-11-18T05:40:31;8.80;72.20
17659;DHT22;8948;51.534;8.262;2022-11-18T05:45:32;8.70;71.90
17659;DHT22;8948;51.534;8.262;2022-11-18T05:50:36;8.50;72.40
17659;DHT22;8948;51.534;8.262;2022-11-18T05:55:53;8.50;72.30
17659;DHT22;8948;51.534;8.262;2022-11-18T06:00:59;8.30;73.00
17659;DHT22;8948;51.534;8.262;2022-11-18T06:06:02;8.40;73.10
17659;DHT22;8948;51.534;8.262;2022-11-18T06:11:05;8.50;72.40
17659;DHT22;8948;51.534;8.262;2022-11-18T06:16:07;8.50;72.10
17659;DHT22;8948;51.534;8.262;2022-11-18T06:21:08;8.50;72.10
17659;DHT22;8948;51.534;8.262;2022-11-18T06:26:09;8.50;72.10
17659;DHT22;8948;51.534;8.262;2022-11-18T06:31:11;8.50;72.10
17659;DHT22;8948;51.534;8.262;2022-11-18T06:36:12;8.40;72.80
17659;DHT22;8948;51.534;8.262;2022-11-18T06:41:12;8.40;73.20
17659;DHT22;8948;51.534;8.262;2022-11-18T06:46:15;8.40;73.70
17659;DHT22;8948;51.534;8.262;2022-11-18T06:51:35;8.50;73.30
17659;DHT22;8948;51.534;8.262;2022-11-18T06:56:35;8.50;73.30
17659;DHT22;8948;51.534;8.262;2022-11-18T07:01:38;8.50;73.50
17659;DHT22;8948;51.534;8.262;2022-11-18T07:06:38;8.60;73.40
17659;DHT22;8948;51.534;8.262;2022-11-18T07:11:39;8.70;73.40
17659;DHT22;8948;51.534;8.262;2022-11-18T07:16:41;8.70;73.80
17659;DHT22;8948;51.534;8.262;2022-11-18T07:21:41;8.90;73.70
17659;DHT22;8948;51.534;8.262;2022-11-18T07:26:42;9.00;73.60
17659;DHT22;8948;51.534;8.262;2022-11-18T07:31:43;9.00;73.80
17659;DHT22;8948;51.534;8.262;2022-11-18T07:36:43;9.00;73.60
17659;DHT22;8948;51.534;8.262;2022-11-18T07:41:44;9.00;73.80
17659;DHT22;8948;51.534;8.262;2022-11-18T07:46:45;9.10;73.80
17659;DHT22;8948;51.534;8.262;2022-11-18T07:51:45;9.20;73.50
17659;DHT22;8948;51.534;8.262;2022-11-18T07:56:46;9.20;73.50
17659;DHT22;8948;51.534;8.262;2022-11-18T08:01:46;9.30;73.10
17659;DHT22;8948;51.534;8.262;2022-11-18T08:06:47;9.40;73.20
17659;DHT22;8948;51.534;8.262;2022-11-18T08:11:48;9.50;73.90
17659;DHT22;8948;51.534;8.262;2022-11-18T08:16:48;9.60;74.10
17659;DHT22;8948;51.534;8.262;2022-11-18T08:21:49;9.60;74.50
17659;DHT22;8948;51.534;8.262;2022-11-18T08:26:50;9.70;74.60
17659;DHT22;8948;51.534;8.262;2022-11-18T08:31:50;9.80;74.90
17659;DHT22;8948;51.534;8.262;2022-11-18T08:36:51;9.80;75.10
17659;DHT22;8948;51.534;8.262;2022-11-18T08:41:51;9.80;75.70
17659;DHT22;8948;51.534;8.262;2022-11-18T08:46:52;9.80;75.30
17659;DHT22;8948;51.534;8.262;2022-11-18T08:51:53;9.80;75.40
17659;DHT22;8948;51.534;8.262;2022-11-18T08:56:53;9.90;75.70
17659;DHT22;8948;51.534;8.262;2022-11-18T09:12:15;10.00;75.40
17659;DHT22;8948;51.534;8.262;2022-11-18T09:17:16;10.00;75.10
17659;DHT22;8948;51.534;8.262;2022-11-18T09:22:17;10.10;74.50
17659;DHT22;8948;51.534;8.262;2022-11-18T09:32:28;10.20;75.30
17659;DHT22;8948;51.534;8.262;2022-11-18T09:37:28;10.30;76.30
17659;DHT22;8948;51.534;8.262;2022-11-18T09:47:42;10.40;76.20
17659;DHT22;8948;51.534;8.262;2022-11-18T09:52:43;10.50;75.60
17659;DHT22;8948;51.534;8.262;2022-11-18T09:57:57;10.50;76.10
17659;DHT22;8948;51.534;8.262;2022-11-18T10:03:10;10.60;75.70
17659;DHT22;8948;51.534;8.262;2022-11-18T10:14:09;10.80;74.90
17659;DHT22;8948;51.534;8.262;2022-11-18T10:19:32;10.90;75.90
17659;DHT22;8948;51.534;8.262;2022-11-18T10:24:38;10.90;75.20
17659;DHT22;8948;51.534;8.262;2022-11-18T10:29:41;11.00;73.30
17659;DHT22;8948;51.534;8.262;2022-11-18T10:34:49;11.00;73.00
17659;DHT22;8948;51.534;8.262;2022-11-18T10:39:52;11.00;73.30
17659;DHT22;8948;51.534;8.262;2022-11-18T10:44:53;11.00;72.90
17659;DHT22;8948;51.534;8.262;2022-11-18T10:50:01;11.00;72.80
17659;DHT22;8948;51.534;8.262;2022-11-18T10:55:18;10.90;73.20
17659;DHT22;8948;51.534;8.262;2022-11-18T11:00:35;11.00;73.30
17659;DHT22;8948;51.534;8.262;2022-11-18T11:05:36;11.00;72.60
17659;DHT22;8948;51.534;8.262;2022-11-18T11:10:37;10.90;72.40
17659;DHT22;8948;51.534;8.262;2022-11-18T11:15:41;11.00;73.00
17659;DHT22;8948;51.534;8.262;2022-11-18T11:20:44;11.10;72.70
17659;DHT22;8948;51.534;8.262;2022-11-18T11:26:01;11.20;72.20
17659;DHT22;8948;51.534;8.262;2022-11-18T11:31:11;11.40;72.00
17659;DHT22;8948;51.534;8.262;2022-11-18T11:41:42;11.60;70.20
17659;DHT22;8948;51.534;8.262;2022-11-18T11:52:20;11.50;70.20
17659;DHT22;8948;51.534;8.262;2022-11-18T11:57:47;11.60;70.60
17659;DHT22;8948;51.534;8.262;2022-11-18T12:08:29;11.60;69.90
17659;DHT22;8948;51.534;8.262;2022-11-18T12:24:46;11.50;70.70
17659;DHT22;8948;51.534;8.262;2022-11-18T12:34:59;11.70;71.10
17659;DHT22;8948;51.534;8.262;2022-11-18T12:40:00;11.70;71.90
17659;DHT22;8948;51.534;8.262;2022-11-18T12:50:51;11.60;71.90
17659;DHT22;8948;51.534;8.262;2022-11-18T12:55:52;11.60;72.40
17659;DHT22;8948;51.534;8.262;2022-11-18T13:01:09;11.50;71.80
17659;DHT22;8948;51.534;8.262;2022-11-18T13:06:25;11.60;72.10
17659;DHT22;8948;51.534;8.262;2022-11-18T13:11:30;11.60;72.20
17659;DHT22;8948;51.534;8.262;2022-11-18T13:16:47;11.50;72.50
17659;DHT22;8948;51.534;8.262;2022-11-18T13:22:16;11.40;73.70
17659;DHT22;8948;51.534;8.262;2022-11-18T13:27:50;11.40;73.00
17659;DHT22;8948;51.534;8.262;2022-11-18T13:32:53;11.40;73.30
17659;DHT22;8948;51.534;8.262;2022-11-18T13:38:01;11.40;73.60
17659;DHT22;8948;51.534;8.262;2022-11-18T13:43:01;11.30;73.90
17659;DHT22;8948;51.534;8.262;2022-11-18T13:48:08;11.40;74.30
17659;DHT22;8948;51.534;8.262;2022-11-18T13:53:29;11.50;74.50
17659;DHT22;8948;51.534;8.262;2022-11-18T14:03:56;11.10;75.60
17659;DHT22;8948;51.534;8.262;2022-11-18T14:14:28;11.10;76.80
17659;DHT22;8948;51.534;8.262;2022-11-18T14:19:30;11.00;77.10
17659;DHT22;8948;51.534;8.262;2022-11-18T14:24:32;10.90;76.30
17659;DHT22;8948;51.534;8.262;2022-11-18T14:29:32;10.80;76.40
17659;DHT22;8948;51.534;8.262;2022-11-18T14:34:33;10.80;76.40
17659;DHT22;8948;51.534;8.262;2022-11-18T14:39:33;10.80;76.80
17659;DHT22;8948;51.534;8.262;2022-11-18T14:44:36;11.00;76.40
17659;DHT22;8948;51.534;8.262;2022-11-18T14:49:37;11.00;75.80
17659;DHT22;8948;51.534;8.262;2022-11-18T14:54:37;10.90;76.00
17659;DHT22;8948;51.534;8.262;2022-11-18T14:59:38;10.80;76.30
17659;DHT22;8948;51.534;8.262;2022-11-18T15:04:38;10.90;75.80
17659;DHT22;8948;51.534;8.262;2022-11-18T15:09:40;10.80;76.00
17659;DHT22;8948;51.534;8.262;2022-11-18T15:14:41;10.80;76.20
17659;DHT22;8948;51.534;8.262;2022-11-18T15:19:41;10.80;76.00
17659;DHT22;8948;51.534;8.262;2022-11-18T15:24:42;10.70;76.40
17659;DHT22;8948;51.534;8.262;2022-11-18T15:29:42;10.60;76.60
17659;DHT22;8948;51.534;8.262;2022-11-18T15:34:43;10.50;76.60
17659;DHT22;8948;51.534;8.262;2022-11-18T15:39:43;10.30;76.80
17659;DHT22;8948;51.534;8.262;2022-11-18T15:44:44;10.40;76.50
17659;DHT22;8948;51.534;8.262;2022-11-18T15:49:45;10.30;76.30
17659;DHT22;8948;51.534;8.262;2022-11-18T15:54:45;10.30;76.30
17659;DHT22;8948;51.534;8.262;2022-11-18T15:59:46;10.20;76.40
17659;DHT22;8948;51.534;8.262;2022-11-18T16:04:47;10.10;76.30
17659;DHT22;8948;51.534;8.262;2022-11-18T16:09:48;10.00;76.30
17659;DHT22;8948;51.534;8.262;2022-11-18T16:15:07;9.90;76.30
17659;DHT22;8948;51.534;8.262;2022-11-18T16:20:27;9.70;76.20
17659;DHT22;8948;51.534;8.262;2022-11-18T16:25:27;9.60;76.70
17659;DHT22;8948;51.534;8.262;2022-11-18T16:30:28;9.50;76.60
17659;DHT22;8948;51.534;8.262;2022-11-18T16:36:07;9.60;75.80
17659;DHT22;8948;51.534;8.262;2022-11-18T16:41:08;9.50;75.50
17659;DHT22;8948;51.534;8.262;2022-11-18T16:46:28;9.40;75.40
17659;DHT22;8948;51.534;8.262;2022-11-18T16:51:31;9.20;75.40
17659;DHT22;8948;51.534;8.262;2022-11-18T16:56:33;9.20;75.80
17659;DHT22;8948;51.534;8.262;2022-11-18T17:01:34;9.20;75.80
17659;DHT22;8948;51.534;8.262;2022-11-18T17:06:35;9.20;76.10
17659;DHT22;8948;51.534;8.262;2022-11-18T17:11:35;9.30;75.40
17659;DHT22;8948;51.534;8.262;2022-11-18T17:16:36;9.20;75.40
17659;DHT22;8948;51.534;8.262;2022-11-18T17:21:37;9.40;75.20
17659;DHT22;8948;51.534;8.262;2022-11-18T17:26:38;9.50;74.40
17659;DHT22;8948;51.534;8.262;2022-11-18T17:31:40;9.40;74.00
17659;DHT22;8948;51.534;8.262;2022-11-18T17:36:41;9.30;73.70
17659;DHT22;8948;51.534;8.262;2022-11-18T17:41:41;9.20;73.50
17659;DHT22;8948;51.534;8.262;2022-11-18T17:47:01;9.10;73.50
17659;DHT22;8948;51.534;8.262;2022-11-18T17:52:02;8.80;74.00
17659;DHT22;8948;51.534;8.262;2022-11-18T17:57:02;8.80;73.60
17659;DHT22;8948;51.534;8.262;2022-11-18T18:02:03;8.80;73.90
17659;DHT22;8948;51.534;8.262;2022-11-18T18:07:04;8.80;73.50
17659;DHT22;8948;51.534;8.262;2022-11-18T18:12:04;8.70;73.80
17659;DHT22;8948;51.534;8.262;2022-11-18T18:17:25;8.80;74.00
17659;DHT22;8948;51.534;8.262;2022-11-18T18:22:25;8.90;73.40
17659;DHT22;8948;51.534;8.262;2022-11-18T18:27:26;8.80;73.20
17659;DHT22;8948;51.534;8.262;2022-11-18T18:32:26;8.60;73.80
17659;DHT22;8948;51.534;8.262;2022-11-18T18:37:28;8.40;74.30
17659;DHT22;8948;51.534;8.262;2022-11-18T18:42:29;8.40;73.90
17659;DHT22;8948;51.534;8.262;2022-11-18T18:47:29;8.40;74.10
17659;DHT22;8948;51.534;8.262;2022-11-18T18:52:32;8.40;74.20
17659;DHT22;8948;51.534;8.262;2022-11-18T18:57:33;8.40;73.70
17659;DHT22;8948;51.534;8.262;2022-11-18T19:02:33;8.20;73.80
17659;DHT22;8948;51.534;8.262;2022-11-18T19:07:34;8.20;74.50
17659;DHT22;8948;51.534;8.262;2022-11-18T19:12:35;8.20;73.60
17659;DHT22;8948;51.534;8.262;2022-11-18T19:17:51;8.10;73.60
17659;DHT22;8948;51.534;8.262;2022-11-18T19:22:51;8.10;72.80
17659;DHT22;8948;51.534;8.262;2022-11-18T19:27:52;8.00;72.70
17659;DHT22;8948;51.534;8.262;2022-11-18T19:32:53;7.90;73.30
17659;DHT22;8948;51.534;8.262;2022-11-18T19:37:55;7.90;73.50
17659;DHT22;8948;51.534;8.262;2022-11-18T19:42:56;7.90;73.30
17659;DHT22;8948;51.534;8.262;2022-11-18T19:47:58;7.60;73.10
17659;DHT22;8948;51.534;8.262;2022-11-18T19:52:58;7.40;73.30
17659;DHT22;8948;51.534;8.262;2022-11-18T19:58:19;7.20;74.30
17659;DHT22;8948;51.534;8.262;2022-11-18T20:03:19;7.30;74.10
17659;DHT22;8948;51.534;8.262;2022-11-18T20:08:22;7.10;73.70
17659;DHT22;8948;51.534;8.262;2022-11-18T20:13:22;7.00;73.00
17659;DHT22;8948;51.534;8.262;2022-11-18T20:18:23;6.70;73.90
17659;DHT22;8948;51.534;8.262;2022-11-18T20:23:24;6.60;74.10
17659;DHT22;8948;51.534;8.262;2022-11-18T20:28:25;6.60;73.80
17659;DHT22;8948;51.534;8.262;2022-11-18T20:33:25;6.60;73.20
17659;DHT22;8948;51.534;8.262;2022-11-18T20:38:26;6.60;72.80
17659;DHT22;8948;51.534;8.262;2022-11-18T20:43:27;6.40;72.80
17659;DHT22;8948;51.534;8.262;2022-11-18T20:48:28;6.40;72.60
17659;DHT22;8948;51.534;8.262;2022-11-18T20:53:30;6.60;71.50
17659;DHT22;8948;51.534;8.262;2022-11-18T20:58:31;6.30;71.00
17659;DHT22;8948;51.534;8.262;2022-11-18T21:03:32;6.20;71.60
17659;DHT22;8948;51.534;8.262;2022-11-18T21:08:33;6.20;70.80
17659;DHT22;8948;51.534;8.262;2022-11-18T21:13:34;6.30;71.20
17659;DHT22;8948;51.534;8.262;2022-11-18T21:18:53;6.30;69.70
17659;DHT22;8948;51.534;8.262;2022-11-18T21:23:55;6.20;70.00
17659;DHT22;8948;51.534;8.262;2022-11-18T21:28:58;5.90;70.50
17659;DHT22;8948;51.534;8.262;2022-11-18T21:33:59;5.80;70.80
17659;DHT22;8948;51.534;8.262;2022-11-18T21:39:00;5.90;70.60
17659;DHT22;8948;51.534;8.262;2022-11-18T21:44:02;6.00;70.40
17659;DHT22;8948;51.534;8.262;2022-11-18T21:49:04;6.00;69.00
17659;DHT22;8948;51.534;8.262;2022-11-18T21:54:05;6.00;69.30
17659;DHT22;8948;51.534;8.262;2022-11-18T21:59:05;5.90;69.00
17659;DHT22;8948;51.534;8.262;2022-11-18T22:04:06;5.70;69.60
17659;DHT22;8948;51.534;8.262;2022-11-18T22:09:07;5.60;70.20
17659;DHT22;8948;51.534;8.262;2022-11-18T22:14:07;5.80;70.20
17659;DHT22;8948;51.534;8.262;2022-11-18T22:19:08;5.70;70.10
17659;DHT22;8948;51.534;8.262;2022-11-18T22:24:09;5.70;69.90
17659;DHT22;8948;51.534;8.262;2022-11-18T22:29:10;5.60;69.60
17659;DHT22;8948;51.534;8.262;2022-11-18T22:34:10;5.40;69.60
17659;DHT22;8948;51.534;8.262;2022-11-18T22:39:11;5.30;70.70
17659;DHT22;8948;51.534;8.262;2022-11-18T22:44:13;5.30;70.00
17659;DHT22;8948;51.534;8.262;2022-11-18T22:49:14;5.30;70.40
17659;DHT22;8948;51.534;8.262;2022-11-18T22:54:15;5.40;69.30
17659;DHT22;8948;51.534;8.262;2022-11-18T22:59:15;5.40;70.60
17659;DHT22;8948;51.534;8.262;2022-11-18T23:04:16;5.30;69.90
17659;DHT22;8948;51.534;8.262;2022-11-18T23:09:16;5.30;69.90
17659;DHT22;8948;51.534;8.262;2022-11-18T23:14:17;5.40;69.90
17659;DHT22;8948;51.534;8.262;2022-11-18T23:19:18;5.40;70.30
17659;DHT22;8948;51.534;8.262;2022-11-18T23:24:18;5.50;69.20
17659;DHT22;8948;51.534;8.262;2022-11-18T23:29:19;5.30;69.40
17659;DHT22;8948;51.534;8.262;2022-11-18T23:34:19;5.30;69.90
17659;DHT22;8948;51.534;8.262;2022-11-18T23:39:20;5.20;69.10
17659;DHT22;8948;51.534;8.262;2022-11-18T23:44:21;5.20;69.40
17659;DHT22;8948;51.534;8.262;2022-11-18T23:49:41;5.10;68.90
17659;DHT22;8948;51.534;8.262;2022-11-18T23:54:42;5.10;69.20
17659;DHT22;8948;51.534;8.262;2022-11-18T23:59:42;5.00;68.80
